createdAt,value
2018-03-08T06:40:02.341Z,484
2018-03-08T06:41:11.535Z,500
2018-03-08T06:42:20.445Z,508
2018-03-08T06:43:29.389Z,512
2018-03-08T06:44:38.851Z,528
2018-03-08T06:45:47.497Z,540
2018-03-08T06:46:56.500Z,560
2018-03-08T06:48:05.985Z,572
2018-03-08T06:49:14.894Z,580
2018-03-08T06:50:23.850Z,592
2018-03-08T06:51:32.516Z,604
2018-03-08T06:52:42.015Z,608
2018-03-08T06:53:50.950Z,616
2018-03-08T06:54:59.903Z,624
2018-03-08T06:56:08.853Z,640
2018-03-08T06:57:18.086Z,656
2018-03-08T06:58:27.043Z,676
2018-03-08T06:59:36.228Z,740
2018-03-08T07:00:45.947Z,784
2018-03-08T07:01:55.425Z,808
2018-03-08T07:03:04.386Z,1096
2018-03-08T07:04:13.031Z,1388
2018-03-08T07:05:21.660Z,1516
2018-03-08T07:06:30.578Z,1504
2018-03-08T07:07:39.786Z,1376
2018-03-08T07:08:48.962Z,1464
2018-03-08T07:09:57.609Z,1452
2018-03-08T07:11:07.286Z,1380
2018-03-08T07:12:16.733Z,1300
2018-03-08T07:13:25.655Z,1244
2018-03-08T07:14:34.302Z,1116
2018-03-08T07:15:43.708Z,1252
2018-03-08T07:16:52.374Z,1456
2018-03-08T07:18:01.306Z,1456
2018-03-08T07:19:09.940Z,1632
2018-03-08T07:20:19.121Z,1600
2018-03-08T07:21:28.556Z,1644
2018-03-08T07:22:37.734Z,1600
2018-03-08T07:23:46.900Z,1508
2018-03-08T07:24:56.354Z,1188
2018-03-08T07:26:05.772Z,1040
2018-03-08T07:27:14.724Z,1104
2018-03-08T07:28:23.903Z,1096
2018-03-08T07:29:33.384Z,1548
2018-03-08T07:30:42.832Z,1740
2018-03-08T07:31:51.750Z,1516
2018-03-08T07:33:01.021Z,1524
2018-03-08T07:34:09.988Z,1520
2018-03-08T07:35:18.977Z,1332
2018-03-08T07:36:28.188Z,1144
2018-03-08T07:37:37.924Z,1240
2018-03-08T07:38:47.375Z,1224
2018-03-08T07:39:56.050Z,1128
2018-03-08T07:41:05.078Z,1212
2018-03-08T07:42:14.100Z,1088
2018-03-08T07:43:23.031Z,1012
2018-03-08T07:44:31.993Z,1064
2018-03-08T07:45:40.903Z,1152
2018-03-08T07:46:50.861Z,1168
2018-03-08T07:48:00.025Z,1172
2018-03-08T07:49:08.935Z,1164
2018-03-08T07:50:18.616Z,1132
2018-03-08T07:51:27.796Z,988
2018-03-08T07:52:36.754Z,1068
2018-03-08T07:53:45.914Z,1084
2018-03-08T07:54:54.832Z,1072
2018-03-08T07:56:03.761Z,1056
2018-03-08T07:57:12.686Z,1056
2018-03-08T07:58:21.885Z,1040
2018-03-08T07:59:31.312Z,1048
2018-03-08T08:00:40.508Z,1056
2018-03-08T08:01:50.006Z,1068
2018-03-08T08:02:59.470Z,1080
2018-03-08T08:04:08.911Z,1092
2018-03-08T08:05:18.090Z,1104
2018-03-08T08:06:26.753Z,1148
2018-03-08T08:07:35.698Z,1568
2018-03-08T08:08:44.927Z,2156
2018-03-08T08:09:54.161Z,2708
2018-03-08T08:11:03.082Z,2892
2018-03-08T08:12:11.743Z,2908
2018-03-08T08:13:20.662Z,2648
2018-03-08T08:14:29.338Z,2520
2018-03-08T08:15:38.261Z,2592
2018-03-08T08:16:47.765Z,2588
2018-03-08T08:17:57.640Z,2332
2018-03-08T08:19:06.876Z,2060
2018-03-08T08:20:16.591Z,1768
2018-03-08T08:21:25.863Z,1644
2018-03-08T08:22:35.331Z,1520
2018-03-08T08:23:44.534Z,1456
2018-03-08T08:24:53.738Z,1516
2018-03-08T08:26:02.678Z,1564
2018-03-08T08:27:12.394Z,1544
2018-03-08T08:28:21.582Z,1496
2018-03-08T08:29:30.498Z,1460
2018-03-08T08:30:39.695Z,1452
2018-03-08T08:31:48.735Z,1464
2018-03-08T08:32:57.406Z,1472
2018-03-08T08:34:06.384Z,1444
2018-03-08T08:35:15.293Z,1380
2018-03-08T08:36:24.529Z,1308
2018-03-08T08:37:33.447Z,1260
2018-03-08T08:38:42.639Z,1172
2018-03-08T08:39:52.422Z,1104
2018-03-08T08:41:01.625Z,1240
2018-03-08T08:42:10.961Z,1368
2018-03-08T08:43:19.886Z,1464
2018-03-08T08:44:29.090Z,1444
2018-03-08T08:45:38.111Z,1468
2018-03-08T08:46:47.100Z,1416
2018-03-08T08:47:57.078Z,1292
2018-03-08T08:49:06.283Z,1144
2018-03-08T08:50:14.939Z,1100
2018-03-08T08:51:24.165Z,1128
2018-03-08T08:52:32.845Z,1272
2018-03-08T08:53:42.355Z,1520
2018-03-08T08:54:51.334Z,1688
2018-03-08T08:56:00.541Z,1716
2018-03-08T08:57:09.452Z,1740
2018-03-08T08:58:18.117Z,1804
2018-03-08T08:59:26.775Z,1892
2018-03-08T09:00:36.237Z,1852
2018-03-08T09:01:44.927Z,1688
2018-03-08T09:02:53.582Z,1632
2018-03-08T09:04:02.757Z,1748
2018-03-08T09:05:11.673Z,1856
2018-03-08T09:06:20.865Z,1796
2018-03-08T09:07:30.063Z,1660
2018-03-08T09:08:39.342Z,1636
2018-03-08T09:09:48.517Z,1668
2018-03-08T09:10:57.449Z,1608
2018-03-08T09:12:06.426Z,1452
2018-03-08T09:13:15.335Z,1372
2018-03-08T09:14:23.987Z,1412
2018-03-08T09:15:32.954Z,1500
2018-03-08T09:16:42.474Z,1604
2018-03-08T09:17:51.381Z,1616
2018-03-08T09:19:00.999Z,1636
2018-03-08T09:20:10.435Z,1688
2018-03-08T09:21:19.118Z,1760
2018-03-08T09:22:28.298Z,1836
2018-03-08T09:23:37.228Z,1848
2018-03-08T09:24:45.886Z,1864
2018-03-08T09:25:55.107Z,1928
2018-03-08T09:27:04.043Z,1940
2018-03-08T09:28:12.723Z,1968
2018-03-08T09:29:22.244Z,2120
2018-03-08T09:30:31.429Z,2292
2018-03-08T09:31:40.327Z,2368
2018-03-08T09:32:49.234Z,2396
2018-03-08T09:33:58.156Z,2480
2018-03-08T09:35:07.089Z,2516
2018-03-08T09:36:16.037Z,2560
2018-03-08T09:37:25.742Z,2620
2018-03-08T09:38:35.272Z,2728
2018-03-08T09:39:43.970Z,2660
2018-03-08T09:40:52.844Z,2480
2018-03-08T09:42:01.513Z,2320
2018-03-08T09:43:10.424Z,2240
2018-03-08T09:44:20.147Z,2272
2018-03-08T09:45:29.363Z,2508
2018-03-08T09:46:38.808Z,2680
2018-03-08T09:47:47.993Z,2768
2018-03-08T09:48:56.644Z,2808
2018-03-08T09:50:05.330Z,2828
2018-03-08T09:51:14.548Z,2760
2018-03-08T09:52:23.732Z,2736
2018-03-08T09:53:32.669Z,2732
2018-03-08T09:54:41.664Z,2676
2018-03-08T09:55:50.582Z,2588
2018-03-08T09:56:59.238Z,2456
2018-03-08T09:58:07.968Z,2052
2018-03-08T09:59:16.885Z,1880
2018-03-08T10:00:26.095Z,1688
2018-03-08T10:01:35.333Z,1628
2018-03-08T10:02:44.821Z,1620
2018-03-08T10:03:53.982Z,1732
2018-03-08T10:05:03.187Z,1760
2018-03-08T10:06:12.394Z,1980
2018-03-08T10:07:21.345Z,1964
2018-03-08T10:08:30.802Z,1892
2018-03-08T10:09:40.242Z,2136
2018-03-08T10:10:49.461Z,2228
2018-03-08T10:11:58.886Z,2536
2018-03-08T10:13:08.264Z,2604
2018-03-08T10:14:17.217Z,2792
2018-03-08T10:15:26.679Z,2864
2018-03-08T10:16:35.647Z,2704
2018-03-08T10:17:45.497Z,2860
2018-03-08T10:18:54.223Z,2932
2018-03-08T10:20:02.898Z,2956
2018-03-08T10:21:11.587Z,2896
2018-03-08T10:22:21.296Z,2812
2018-03-08T10:23:30.208Z,2720
2018-03-08T10:24:39.944Z,2648
2018-03-08T10:25:48.917Z,2452
2018-03-08T10:26:58.377Z,2472
2018-03-08T10:28:07.848Z,2364
2018-03-08T10:29:16.842Z,2436
2018-03-08T10:30:25.491Z,2480
2018-03-08T10:31:34.179Z,2776
2018-03-08T10:32:42.877Z,2808
2018-03-08T10:33:51.553Z,3024
2018-03-08T10:35:01.007Z,3240
2018-03-08T10:36:10.209Z,3488
2018-03-08T10:37:19.193Z,3404
2018-03-08T10:38:27.880Z,3416
2018-03-08T10:39:37.057Z,3256
2018-03-08T10:40:49.189Z,2956
2018-03-08T10:41:58.883Z,2516
2018-03-08T10:43:08.338Z,2768
2018-03-08T10:44:17.555Z,2788
2018-03-08T10:45:26.798Z,2576
2018-03-08T10:46:36.255Z,2460
2018-03-08T10:47:45.200Z,2344
2018-03-08T10:49:06.963Z,2472
2018-03-08T10:50:16.168Z,2640
2018-03-08T10:51:25.386Z,2776
2018-03-08T10:52:34.301Z,2752
2018-03-08T10:53:43.765Z,2612
2018-03-08T10:54:52.960Z,2344
2018-03-08T10:56:02.385Z,2584
2018-03-08T10:57:11.317Z,2516
2018-03-08T10:58:20.766Z,2512
2018-03-08T10:59:29.689Z,1820
2018-03-08T11:00:38.634Z,1912
2018-03-08T11:01:49.361Z,1704
2018-03-08T11:02:58.551Z,1636
2018-03-08T11:04:07.488Z,1516
2018-03-08T11:05:16.443Z,1624
2018-03-08T11:06:25.447Z,1700
2018-03-08T11:07:34.121Z,1764
2018-03-08T11:08:43.059Z,1920
2018-03-08T11:09:52.274Z,2168
2018-03-08T11:13:33.573Z,2500
2018-03-08T11:14:42.773Z,2764
2018-03-08T11:15:51.711Z,2884
2018-03-08T11:17:00.647Z,2584
2018-03-08T11:20:41.997Z,2952
2018-03-08T11:21:51.180Z,2532
2018-03-08T11:22:59.907Z,2380
2018-03-08T11:24:09.627Z,2216
2018-03-08T11:25:18.559Z,2652
2018-03-08T11:26:28.028Z,2116
2018-03-08T11:27:37.465Z,1828
2018-03-08T11:28:46.403Z,2080
2018-03-08T11:29:55.604Z,1640
2018-03-08T11:31:04.577Z,1604
2018-03-08T11:32:13.777Z,1476
2018-03-08T11:33:22.987Z,1292
2018-03-08T11:34:31.903Z,1304
2018-03-08T11:35:41.155Z,1220
2018-03-08T11:36:50.096Z,996
2018-03-08T11:37:59.112Z,980
2018-03-08T11:39:09.903Z,964
2018-03-08T11:40:19.622Z,964
2018-03-08T11:41:28.798Z,876
2018-03-08T11:42:37.753Z,1068
2018-03-08T11:43:47.010Z,940
2018-03-08T11:44:56.020Z,764
2018-03-08T11:46:06.646Z,684
2018-03-08T11:47:14.845Z,964
2018-03-08T11:48:24.029Z,1020
2018-03-08T11:49:33.233Z,944
2018-03-08T11:50:42.151Z,912
2018-03-08T11:51:50.801Z,832
2018-03-08T11:52:59.717Z,1068
2018-03-08T11:54:08.896Z,1356
2018-03-08T11:55:18.322Z,1240
2018-03-08T11:56:27.235Z,1036
2018-03-08T11:57:36.426Z,1288
2018-03-08T11:58:45.601Z,1316
2018-03-08T11:59:54.515Z,1320
2018-03-08T12:01:03.672Z,1296
2018-03-08T12:02:12.350Z,1176
2018-03-08T12:03:21.555Z,1280
2018-03-08T12:04:30.292Z,1284
2018-03-08T12:05:39.876Z,1420
2018-03-08T12:06:49.070Z,1696
2018-03-08T12:07:57.786Z,1892
2018-03-08T12:09:07.010Z,1720
2018-03-08T12:10:16.216Z,1564
2018-03-08T12:11:24.895Z,1560
2018-03-08T12:12:33.793Z,1388
2018-03-08T12:13:43.303Z,1368
2018-03-08T12:14:52.791Z,1472
2018-03-08T12:16:01.978Z,1612
2018-03-08T12:17:11.222Z,1528
2018-03-08T12:18:20.400Z,1672
2018-03-08T12:19:29.642Z,1540
2018-03-08T12:20:38.862Z,1488
2018-03-08T12:21:48.028Z,1648
2018-03-08T12:22:56.701Z,1712
2018-03-08T12:24:05.629Z,1668
2018-03-08T12:25:14.586Z,1608
2018-03-08T12:26:24.075Z,1256
2018-03-08T12:27:32.991Z,1148
2018-03-08T12:28:41.931Z,1352
2018-03-08T12:29:50.945Z,1448
2018-03-08T12:30:59.627Z,1288
2018-03-08T12:32:09.071Z,892
2018-03-08T12:33:18.227Z,1056
2018-03-08T12:34:27.429Z,1136
2018-03-08T12:35:37.741Z,1236
2018-03-08T12:36:46.676Z,1180
2018-03-08T12:37:55.944Z,1320
2018-03-08T12:39:05.171Z,1312
2018-03-08T12:40:14.217Z,1212
2018-03-08T12:41:23.471Z,1208
2018-03-08T12:42:32.900Z,1168
2018-03-08T12:43:42.418Z,1088
2018-03-08T12:44:51.357Z,964
2018-03-08T12:46:00.796Z,912
2018-03-08T12:47:09.969Z,1060
2018-03-08T12:48:18.660Z,952
2018-03-08T12:49:27.869Z,880
2018-03-08T12:50:36.827Z,820
2018-03-08T12:51:46.069Z,912
2018-03-08T12:52:54.976Z,916
2018-03-08T12:54:04.197Z,688
2018-03-08T12:55:12.888Z,616
2018-03-08T12:56:22.114Z,724
2018-03-08T12:57:31.588Z,684
2018-03-08T12:58:41.035Z,572
2018-03-08T12:59:50.768Z,564
2018-03-08T13:01:00.010Z,524
2018-03-08T13:02:09.233Z,528
2018-03-08T13:03:17.887Z,536
2018-03-08T13:04:27.244Z,488
2018-03-08T13:05:36.165Z,400
2018-03-08T13:06:44.853Z,404
2018-03-08T13:07:53.793Z,372
2018-03-08T13:09:02.970Z,396
2018-03-08T13:10:12.432Z,344
2018-03-08T13:11:21.356Z,360
2018-03-08T13:12:30.579Z,400
2018-03-08T13:13:39.537Z,360
2018-03-08T13:14:48.720Z,384
2018-03-08T13:15:57.384Z,364
2018-03-08T13:17:06.310Z,420
2018-03-08T13:18:15.258Z,492
2018-03-08T13:19:24.268Z,440
2018-03-08T13:20:33.709Z,504
2018-03-08T13:21:42.655Z,500
2018-03-08T13:22:51.615Z,548
2018-03-08T13:24:00.522Z,524
2018-03-08T13:25:09.207Z,512
2018-03-08T13:26:18.121Z,624
2018-03-08T13:27:27.324Z,520
2018-03-08T13:28:35.977Z,616
2018-03-08T13:29:45.164Z,880
2018-03-08T13:30:54.406Z,1056
2018-03-08T13:32:03.870Z,900
2018-03-08T13:33:12.807Z,1036
2018-03-08T13:34:22.004Z,908
2018-03-08T13:35:30.928Z,1040
2018-03-08T13:36:40.412Z,840
2018-03-08T13:37:49.619Z,812
2018-03-08T13:38:59.085Z,824
2018-03-08T13:40:08.042Z,788
2018-03-08T13:41:17.505Z,804
2018-03-08T13:42:26.197Z,808
2018-03-08T13:43:34.849Z,792
2018-03-08T13:44:44.628Z,916
2018-03-08T13:45:53.546Z,904
2018-03-08T13:47:02.985Z,744
2018-03-08T13:48:11.910Z,580
2018-03-08T13:49:21.145Z,504
2018-03-08T13:50:30.579Z,496
2018-03-08T13:51:39.506Z,392
2018-03-08T13:52:48.411Z,324
2018-03-08T13:53:57.351Z,284
2018-03-08T13:55:06.253Z,276
2018-03-08T13:56:15.513Z,304
2018-03-08T13:57:24.686Z,312
2018-03-08T13:58:33.666Z,292
2018-03-08T13:59:43.145Z,280
2018-03-08T14:00:52.869Z,356
2018-03-08T14:02:02.072Z,396
2018-03-08T14:03:10.999Z,436
2018-03-08T14:04:19.640Z,384
2018-03-08T14:05:28.819Z,444
2018-03-08T14:06:38.086Z,640
2018-03-08T14:07:47.047Z,828
2018-03-08T14:08:56.228Z,948
2018-03-08T14:10:04.969Z,824
2018-03-08T14:11:14.691Z,816
2018-03-08T14:12:24.531Z,624
2018-03-08T14:13:33.450Z,512
2018-03-08T14:14:42.396Z,380
2018-03-08T14:15:51.559Z,564
2018-03-08T14:17:00.721Z,592
2018-03-08T14:18:10.192Z,696
2018-03-08T14:19:19.103Z,436
2018-03-08T14:20:28.267Z,424
2018-03-08T14:21:37.262Z,328
2018-03-08T14:22:46.452Z,368
2018-03-08T14:23:55.205Z,380
2018-03-08T14:25:04.378Z,344
2018-03-08T14:26:13.293Z,352
2018-03-08T14:27:22.473Z,340
2018-03-08T14:28:31.925Z,384
2018-03-08T14:29:40.587Z,396
2018-03-08T14:30:50.023Z,420
2018-03-08T14:31:59.421Z,416
2018-03-08T14:33:09.186Z,348
2018-03-08T14:34:18.101Z,328
2018-03-08T14:35:27.287Z,360
2018-03-08T14:36:35.936Z,368
2018-03-08T14:37:45.116Z,396
2018-03-08T14:38:54.629Z,364
2018-03-08T14:40:03.628Z,388
2018-03-08T14:41:12.800Z,372
2018-03-08T14:42:22.630Z,380
2018-03-08T14:43:32.311Z,392
2018-03-08T14:44:41.249Z,332
2018-03-08T14:45:50.686Z,280
2018-03-08T14:46:59.881Z,256
2018-03-08T14:48:09.580Z,244
2018-03-08T14:49:18.272Z,300
2018-03-08T14:50:26.979Z,408
2018-03-08T14:51:36.183Z,608
2018-03-08T14:52:45.092Z,628
2018-03-08T14:53:54.080Z,696
2018-03-08T14:55:03.018Z,820
2018-03-08T14:56:12.198Z,884
2018-03-08T14:57:21.372Z,936
2018-03-08T14:58:30.843Z,976
2018-03-08T14:59:40.097Z,856
2018-03-08T15:00:49.549Z,740
2018-03-08T15:01:58.467Z,592
2018-03-08T15:03:07.944Z,420
2018-03-08T15:04:16.602Z,336
2018-03-08T15:05:25.796Z,380
2018-03-08T15:06:35.214Z,436
2018-03-08T15:07:44.910Z,448
2018-03-08T15:08:53.563Z,512
2018-03-08T15:10:03.514Z,504
2018-03-08T15:11:12.970Z,416
2018-03-08T15:12:21.901Z,388
2018-03-08T15:13:30.832Z,388
2018-03-08T15:14:39.858Z,404
2018-03-08T15:15:48.752Z,424
2018-03-08T15:16:57.687Z,412
2018-03-08T15:18:06.860Z,384
2018-03-08T15:19:16.320Z,328
2018-03-08T15:20:25.755Z,300
2018-03-08T15:21:35.024Z,300
2018-03-08T15:22:44.464Z,312
2018-03-08T15:23:54.084Z,252
2018-03-08T15:25:03.310Z,204
2018-03-08T15:26:12.740Z,208
2018-03-08T15:27:21.756Z,220
2018-03-08T15:28:30.961Z,216
2018-03-08T15:29:39.639Z,200
2018-03-08T15:30:48.815Z,188
2018-03-08T15:31:57.771Z,148
2018-03-08T15:33:06.973Z,140
2018-03-08T15:34:16.472Z,132
2018-03-08T15:35:25.411Z,132
2018-03-08T15:36:34.346Z,140
2018-03-08T15:37:43.791Z,120
2018-03-08T15:38:52.729Z,104
2018-03-08T15:40:01.683Z,92
2018-03-08T15:41:10.328Z,104
2018-03-08T15:42:19.550Z,100
2018-03-08T15:43:28.464Z,92
2018-03-08T15:44:37.404Z,84
2018-03-08T15:45:46.594Z,80
2018-03-08T15:46:55.757Z,84
2018-03-08T15:48:04.933Z,92
2018-03-08T15:49:14.130Z,112
2018-03-08T15:50:23.304Z,124
2018-03-08T15:51:32.245Z,124
2018-03-08T15:52:41.417Z,136
2018-03-08T15:53:50.365Z,140
2018-03-08T15:54:59.834Z,108
2018-03-08T15:56:09.264Z,104
2018-03-08T15:57:18.209Z,116
2018-03-08T15:58:27.125Z,124
2018-03-08T15:59:36.113Z,120
2018-03-08T16:00:45.516Z,120
2018-03-08T16:01:55.370Z,120
2018-03-08T16:03:04.553Z,120
2018-03-08T16:04:13.722Z,120
2018-03-08T16:05:23.443Z,120
2018-03-08T16:06:32.627Z,124
2018-03-08T16:07:41.547Z,132
2018-03-08T16:08:50.271Z,144
2018-03-08T16:09:59.434Z,124
2018-03-08T16:11:09.128Z,108
2018-03-08T16:12:18.353Z,92
2018-03-08T16:13:27.254Z,88
2018-03-08T16:14:36.681Z,92
2018-03-08T16:15:45.612Z,96
2018-03-08T16:16:55.060Z,88
2018-03-08T16:18:03.964Z,108
2018-03-08T16:19:12.895Z,108
2018-03-08T16:20:21.835Z,100
2018-03-08T16:21:30.515Z,92
2018-03-08T16:22:40.044Z,96
2018-03-08T16:23:49.518Z,108
2018-03-08T16:24:58.505Z,104
2018-03-08T16:26:07.695Z,92
2018-03-08T16:27:17.136Z,76
2018-03-08T16:28:26.083Z,68
2018-03-08T16:29:35.264Z,68
2018-03-08T16:30:44.431Z,76
2018-03-08T16:31:53.352Z,76
2018-03-08T16:33:02.521Z,84
2018-03-08T16:34:11.714Z,72
2018-03-08T16:35:20.882Z,72
2018-03-08T16:36:30.337Z,76
2018-03-08T16:37:39.542Z,84
2018-03-08T16:38:48.975Z,92
2018-03-08T16:39:58.164Z,92
2018-03-08T16:41:07.079Z,84
2018-03-08T16:42:15.977Z,72
2018-03-08T16:43:24.713Z,64
2018-03-08T16:44:33.427Z,60
2018-03-08T16:45:42.307Z,56
2018-03-08T16:46:51.540Z,56
2018-03-08T16:48:00.209Z,60
2018-03-08T16:49:09.186Z,64
2018-03-08T16:50:18.647Z,64
2018-03-08T16:51:27.572Z,64
2018-03-08T16:52:37.097Z,68
2018-03-08T16:53:46.801Z,68
2018-03-08T16:54:55.965Z,76
2018-03-08T16:56:05.660Z,84
2018-03-08T16:57:14.598Z,92
2018-03-08T16:58:24.322Z,96
2018-03-08T16:59:33.255Z,92
2018-03-08T17:00:42.424Z,88
2018-03-08T17:01:51.602Z,84
2018-03-08T17:03:00.804Z,76
2018-03-08T17:04:10.257Z,76
2018-03-08T17:05:19.446Z,76
2018-03-08T17:06:28.141Z,76
2018-03-08T17:07:37.589Z,80
2018-03-08T17:08:46.545Z,84
2018-03-08T17:09:55.192Z,84
2018-03-08T17:11:04.420Z,72
2018-03-08T17:12:13.347Z,104
2018-03-08T17:13:22.310Z,104
2018-03-08T17:14:31.160Z,88
2018-03-08T17:15:40.875Z,72
2018-03-08T17:16:50.283Z,56
2018-03-08T17:17:59.707Z,52
2018-03-08T17:19:08.897Z,72
2018-03-08T17:20:17.561Z,64
2018-03-08T17:21:26.713Z,52
2018-03-08T17:22:35.405Z,52
2018-03-08T17:23:44.530Z,48
2018-03-08T17:24:53.688Z,52
2018-03-08T17:26:02.674Z,52
2018-03-08T17:27:11.836Z,48
2018-03-08T17:28:20.802Z,36
2018-03-08T17:29:29.996Z,28
2018-03-08T17:30:39.677Z,24
2018-03-08T17:31:48.580Z,20
2018-03-08T17:32:57.757Z,16
2018-03-08T17:34:07.195Z,12
2018-03-08T17:35:16.355Z,8
2018-03-08T17:36:25.258Z,8
2018-03-08T17:37:34.164Z,8
2018-03-08T17:38:43.055Z,4
2018-03-08T17:39:51.691Z,8
2018-03-08T17:41:00.355Z,4
2018-03-08T17:42:09.284Z,0
2018-03-08T17:43:17.935Z,0
2018-03-08T17:44:27.101Z,0
2018-03-08T17:45:35.996Z,0
2018-03-08T17:46:44.921Z,0
2018-03-08T17:47:53.816Z,0
2018-03-08T17:49:02.808Z,0
2018-03-08T17:50:11.425Z,0
2018-03-08T17:51:20.599Z,0
2018-03-08T17:52:29.501Z,0
2018-03-08T17:53:38.412Z,0
2018-03-08T17:54:47.596Z,0
2018-03-08T17:55:56.506Z,0
2018-03-08T17:57:05.675Z,0
2018-03-08T17:58:14.316Z,0
2018-03-08T17:59:23.481Z,0
2018-03-08T18:00:32.152Z,0
2018-03-08T18:01:41.074Z,0
2018-03-08T18:02:50.497Z,0
2018-03-08T18:03:59.381Z,4
2018-03-08T18:05:08.289Z,4
2018-03-08T18:06:17.226Z,4
2018-03-08T18:07:25.875Z,4
2018-03-08T18:08:35.319Z,4
2018-03-08T18:09:44.466Z,4
2018-03-08T18:10:53.382Z,4
2018-03-08T18:12:02.294Z,4
2018-03-08T18:13:11.207Z,0
2018-03-08T18:14:20.122Z,4
2018-03-08T18:15:29.908Z,4
2018-03-08T18:16:40.916Z,4
2018-03-08T18:17:50.410Z,4
2018-03-08T18:18:59.567Z,4
2018-03-08T18:20:08.240Z,4
2018-03-08T18:21:18.101Z,4
2018-03-08T18:22:27.786Z,4
2018-03-08T18:23:36.943Z,4
2018-03-08T18:24:46.339Z,4
2018-03-08T18:25:55.514Z,4
2018-03-08T18:27:04.455Z,4
2018-03-08T18:28:13.360Z,4
2018-03-08T18:29:22.791Z,4
2018-03-08T18:30:31.752Z,4
2018-03-08T18:31:40.934Z,4
2018-03-08T18:32:50.115Z,4
2018-03-08T18:33:59.440Z,4
2018-03-08T18:35:09.187Z,4
2018-03-08T18:36:18.875Z,4
2018-03-08T18:37:28.312Z,4
2018-03-08T18:38:37.220Z,4
2018-03-08T18:39:46.388Z,4
2018-03-08T18:40:55.823Z,4
2018-03-08T18:42:05.274Z,4
2018-03-08T18:43:14.189Z,0
2018-03-08T18:44:23.366Z,4
2018-03-08T18:45:32.558Z,4
2018-03-08T18:46:42.000Z,4
2018-03-08T18:47:51.207Z,4
2018-03-08T18:49:00.634Z,4
2018-03-08T18:50:09.568Z,4
2018-03-08T18:51:18.418Z,0
2018-03-08T18:52:27.389Z,0
2018-03-08T18:53:36.043Z,0
2018-03-08T18:54:45.241Z,0
2018-03-08T18:55:53.897Z,4
2018-03-08T18:57:02.847Z,4
2018-03-08T18:58:12.002Z,4
2018-03-08T18:59:21.627Z,4
2018-03-08T19:00:30.775Z,4
2018-03-08T19:01:39.730Z,4
2018-03-08T19:02:48.917Z,4
2018-03-08T19:03:58.620Z,4
2018-03-08T19:05:07.604Z,4
2018-03-08T19:06:16.259Z,4
2018-03-08T19:07:24.992Z,4
2018-03-08T19:08:34.199Z,4
2018-03-08T19:09:43.113Z,4
2018-03-08T19:10:52.052Z,4
2018-03-08T19:12:01.001Z,4
2018-03-08T19:13:10.843Z,4
2018-03-08T19:14:20.055Z,4
2018-03-08T19:15:29.237Z,4
2018-03-08T19:16:38.434Z,4
2018-03-08T19:17:47.614Z,4
2018-03-08T19:18:56.505Z,4
2018-03-08T19:20:05.428Z,4
2018-03-08T19:21:14.870Z,4
2018-03-08T19:22:23.886Z,4
2018-03-08T19:23:33.049Z,4
2018-03-08T19:24:42.281Z,4
2018-03-08T19:25:51.186Z,4
2018-03-08T19:27:00.433Z,4
2018-03-08T19:28:09.661Z,4
2018-03-08T19:29:18.413Z,4
2018-03-08T19:30:27.095Z,4
2018-03-08T19:31:36.086Z,4
2018-03-08T19:32:44.809Z,4
2018-03-08T19:33:54.357Z,4
2018-03-08T19:35:03.597Z,4
2018-03-08T19:36:12.810Z,4
2018-03-08T19:37:22.833Z,4
2018-03-08T19:38:32.324Z,4
2018-03-08T19:39:41.535Z,4
2018-03-08T19:40:50.800Z,4
2018-03-08T19:41:59.746Z,4
2018-03-08T19:43:08.441Z,4
2018-03-08T19:44:17.864Z,4
2018-03-08T19:45:26.815Z,4
2018-03-08T19:46:36.718Z,4
2018-03-08T19:47:45.909Z,4
2018-03-08T19:48:55.155Z,4
2018-03-08T19:50:04.389Z,4
2018-03-08T19:51:13.892Z,4
2018-03-08T19:52:23.306Z,4
2018-03-08T19:53:32.312Z,4
2018-03-08T19:54:41.038Z,4
2018-03-08T19:55:50.371Z,4
2018-03-08T19:56:59.685Z,4
2018-03-08T19:58:08.777Z,4
2018-03-08T19:59:18.017Z,4
2018-03-08T20:00:27.493Z,0
2018-03-08T20:01:36.529Z,0
2018-03-08T20:02:45.791Z,4
2018-03-08T20:03:54.466Z,4
2018-03-08T20:05:03.455Z,0
2018-03-08T20:06:12.739Z,0
2018-03-08T20:07:21.458Z,0
2018-03-08T20:08:30.829Z,0
2018-03-08T20:09:39.600Z,0
2018-03-08T20:10:49.188Z,0
2018-03-08T20:11:58.501Z,0
2018-03-08T20:13:07.523Z,0
2018-03-08T20:14:16.799Z,0
2018-03-08T20:15:26.051Z,0
2018-03-08T20:16:35.321Z,0
2018-03-08T20:17:44.579Z,0
2018-03-08T20:18:53.853Z,0
2018-03-08T20:20:02.652Z,0
2018-03-08T20:21:11.704Z,0
2018-03-08T20:22:20.610Z,0
2018-03-08T20:23:29.930Z,0
2018-03-08T20:24:39.205Z,0
2018-03-08T20:25:48.196Z,0
2018-03-08T20:26:56.974Z,0
2018-03-08T20:28:05.931Z,0
2018-03-08T20:29:15.118Z,0
2018-03-08T20:30:24.075Z,0
2018-03-08T20:31:33.006Z,0
2018-03-08T20:32:41.956Z,0
2018-03-08T20:33:51.179Z,0
2018-03-08T20:35:00.173Z,0
2018-03-08T20:36:09.354Z,0
2018-03-08T20:37:18.048Z,0
2018-03-08T20:38:27.494Z,0
2018-03-08T20:39:36.673Z,0
2018-03-08T20:40:45.600Z,0
2018-03-08T20:41:54.786Z,0
2018-03-08T20:43:03.488Z,0
2018-03-08T20:44:12.390Z,0
2018-03-08T20:45:21.608Z,0
2018-03-08T20:46:30.529Z,0
2018-03-08T20:47:39.468Z,0
2018-03-08T20:48:48.644Z,0
2018-03-08T20:49:57.809Z,0
2018-03-08T20:51:07.260Z,0
2018-03-08T20:52:16.150Z,0
2018-03-08T20:53:25.318Z,0
2018-03-08T20:54:34.482Z,0
2018-03-08T20:55:43.904Z,0
2018-03-08T20:56:53.336Z,0
2018-03-08T20:58:02.511Z,0
2018-03-08T20:59:11.717Z,0
2018-03-08T21:00:21.435Z,0
2018-03-08T21:01:30.594Z,0
2018-03-08T21:02:39.236Z,0
2018-03-08T21:03:48.143Z,0
2018-03-08T21:04:57.376Z,0
2018-03-08T21:06:06.352Z,0
2018-03-08T21:07:15.280Z,0
2018-03-08T21:08:24.169Z,0
2018-03-08T21:09:32.800Z,0
2018-03-08T21:10:42.251Z,0
2018-03-08T21:11:51.133Z,0
2018-03-08T21:13:00.096Z,0
2018-03-08T21:14:09.277Z,0
2018-03-08T21:15:18.517Z,0
2018-03-08T21:16:27.717Z,0
2018-03-08T21:17:36.620Z,0
2018-03-08T21:18:45.546Z,0
2018-03-08T21:19:54.700Z,0
2018-03-08T21:21:03.407Z,0
2018-03-08T21:22:12.596Z,0
2018-03-08T21:23:21.505Z,0
2018-03-08T21:24:31.193Z,0
2018-03-08T21:25:40.113Z,0
2018-03-08T21:26:49.023Z,0
2018-03-08T21:27:57.671Z,0
2018-03-08T21:29:06.841Z,0
2018-03-08T21:30:15.515Z,0
2018-03-08T21:31:24.689Z,0
2018-03-08T21:32:34.115Z,0
2018-03-08T21:33:43.041Z,0
2018-03-08T21:34:52.185Z,0
2018-03-08T21:36:00.827Z,0
2018-03-08T21:37:09.757Z,0
2018-03-08T21:38:18.930Z,0
2018-03-08T21:39:28.127Z,0
2018-03-08T21:40:37.010Z,0
2018-03-08T21:41:46.237Z,0
2018-03-08T21:42:55.484Z,0
2018-03-08T21:44:04.405Z,0
2018-03-08T21:45:13.305Z,0
2018-03-08T21:46:22.517Z,0
2018-03-08T21:47:31.155Z,0
2018-03-08T21:48:40.075Z,0
2018-03-08T21:49:48.725Z,0
2018-03-08T21:50:58.519Z,0
2018-03-08T21:52:07.411Z,0
2018-03-08T21:53:16.864Z,0
2018-03-08T21:54:26.064Z,0
2018-03-08T21:55:35.523Z,0
2018-03-08T21:56:44.426Z,0
2018-03-08T21:57:53.328Z,0
2018-03-08T21:59:02.784Z,0
2018-03-08T22:00:11.696Z,0
2018-03-08T22:01:20.810Z,0
2018-03-08T22:02:29.720Z,0
2018-03-08T22:03:38.723Z,0
2018-03-08T22:04:48.344Z,0
2018-03-08T22:05:57.515Z,0
2018-03-08T22:07:06.991Z,0
2018-03-08T22:08:16.159Z,0
2018-03-08T22:09:25.174Z,0
2018-03-08T22:10:34.635Z,0
2018-03-08T22:11:43.584Z,0
2018-03-08T22:12:53.031Z,0
2018-03-08T22:14:02.920Z,0
2018-03-08T22:15:11.824Z,0
2018-03-08T22:16:21.268Z,0
2018-03-08T22:17:31.008Z,0
2018-03-08T22:18:39.673Z,0
2018-03-08T22:19:48.702Z,0
2018-03-08T22:20:57.955Z,0
2018-03-08T22:22:06.933Z,0
2018-03-08T22:23:15.834Z,0
2018-03-08T22:24:25.315Z,0
2018-03-08T22:25:34.813Z,0
2018-03-08T22:26:43.638Z,0
2018-03-08T22:27:53.780Z,0
2018-03-08T22:29:03.531Z,0
2018-03-08T22:30:12.853Z,0
2018-03-08T22:31:22.963Z,0
2018-03-08T22:32:31.899Z,0
2018-03-08T22:33:40.551Z,0
2018-03-08T22:34:49.373Z,0
2018-03-08T22:35:58.282Z,0
2018-03-08T22:37:07.506Z,0
2018-03-08T22:38:16.952Z,0
2018-03-08T22:39:26.270Z,0
2018-03-08T22:40:35.754Z,0
2018-03-08T22:41:44.770Z,0
2018-03-08T22:42:54.039Z,0
2018-03-08T22:44:02.952Z,0
2018-03-08T22:45:11.842Z,0
2018-03-08T22:46:20.492Z,0
2018-03-08T22:47:29.399Z,0
2018-03-08T22:48:38.585Z,0
2018-03-08T22:49:47.795Z,0